sensor_id;sensor_type;location;lat;lon;timestamp;temperature;humidity
84276;DHT22;74432;51.212;3.254;2024-03-17T00:01:04;10.70;74.40
84276;DHT22;74432;51.212;3.254;2024-03-17T00:03:33;10.70;74.40
84276;DHT22;74432;51.212;3.254;2024-03-17T00:06:00;10.80;74.80
84276;DHT22;74432;51.212;3.254;2024-03-17T00:08:26;10.90;74.10
84276;DHT22;74432;51.212;3.254;2024-03-17T00:10:55;10.90;73.90
84276;DHT22;74432;51.212;3.254;2024-03-17T00:13:22;11.00;73.80
84276;DHT22;74432;51.212;3.254;2024-03-17T00:15:48;11.10;73.30
84276;DHT22;74432;51.212;3.254;2024-03-17T00:18:14;11.10;73.30
84276;DHT22;74432;51.212;3.254;2024-03-17T00:20:40;11.20;73.70
84276;DHT22;74432;51.212;3.254;2024-03-17T00:23:06;11.20;73.40
84276;DHT22;74432;51.212;3.254;2024-03-17T00:25:32;11.10;72.50
84276;DHT22;74432;51.212;3.254;2024-03-17T00:27:59;11.10;73.80
84276;DHT22;74432;51.212;3.254;2024-03-17T00:30:25;11.10;73.70
84276;DHT22;74432;51.212;3.254;2024-03-17T00:32:51;11.20;73.30
84276;DHT22;74432;51.212;3.254;2024-03-17T00:35:16;11.30;73.10
84276;DHT22;74432;51.212;3.254;2024-03-17T00:37:49;11.40;72.30
84276;DHT22;74432;51.212;3.254;2024-03-17T00:40:18;11.30;72.50
84276;DHT22;74432;51.212;3.254;2024-03-17T00:42:44;11.30;73.00
84276;DHT22;74432;51.212;3.254;2024-03-17T00:45:13;11.20;73.20
84276;DHT22;74432;51.212;3.254;2024-03-17T00:47:39;11.10;74.10
84276;DHT22;74432;51.212;3.254;2024-03-17T00:50:05;11.30;72.90
84276;DHT22;74432;51.212;3.254;2024-03-17T00:52:32;11.10;73.00
84276;DHT22;74432;51.212;3.254;2024-03-17T00:54:58;11.10;73.60
84276;DHT22;74432;51.212;3.254;2024-03-17T00:57:24;11.20;73.70
84276;DHT22;74432;51.212;3.254;2024-03-17T00:59:50;11.30;73.20
84276;DHT22;74432;51.212;3.254;2024-03-17T01:02:17;11.20;72.30
84276;DHT22;74432;51.212;3.254;2024-03-17T01:04:44;11.10;73.60
84276;DHT22;74432;51.212;3.254;2024-03-17T01:07:10;11.20;72.50
84276;DHT22;74432;51.212;3.254;2024-03-17T01:09:36;11.00;73.40
84276;DHT22;74432;51.212;3.254;2024-03-17T01:12:02;11.00;74.10
84276;DHT22;74432;51.212;3.254;2024-03-17T01:14:29;10.90;73.90
84276;DHT22;74432;51.212;3.254;2024-03-17T01:16:55;10.90;74.10
84276;DHT22;74432;51.212;3.254;2024-03-17T01:19:24;10.90;74.00
84276;DHT22;74432;51.212;3.254;2024-03-17T01:21:51;11.00;74.20
84276;DHT22;74432;51.212;3.254;2024-03-17T01:24:17;10.90;74.40
84276;DHT22;74432;51.212;3.254;2024-03-17T01:26:43;10.90;74.50
84276;DHT22;74432;51.212;3.254;2024-03-17T01:29:08;11.10;74.40
84276;DHT22;74432;51.212;3.254;2024-03-17T01:31:35;11.20;73.90
84276;DHT22;74432;51.212;3.254;2024-03-17T01:34:03;11.10;73.90
84276;DHT22;74432;51.212;3.254;2024-03-17T01:36:29;11.00;73.60
84276;DHT22;74432;51.212;3.254;2024-03-17T01:38:54;11.10;74.10
84276;DHT22;74432;51.212;3.254;2024-03-17T01:41:20;11.20;73.30
84276;DHT22;74432;51.212;3.254;2024-03-17T01:43:46;11.30;73.00
84276;DHT22;74432;51.212;3.254;2024-03-17T01:46:15;11.20;73.20
84276;DHT22;74432;51.212;3.254;2024-03-17T01:48:41;11.00;73.80
84276;DHT22;74432;51.212;3.254;2024-03-17T01:51:09;11.00;73.90
84276;DHT22;74432;51.212;3.254;2024-03-17T01:53:37;11.20;74.00
84276;DHT22;74432;51.212;3.254;2024-03-17T01:56:03;11.20;73.40
84276;DHT22;74432;51.212;3.254;2024-03-17T01:58:30;11.20;73.40
84276;DHT22;74432;51.212;3.254;2024-03-17T02:00:56;11.10;73.60
84276;DHT22;74432;51.212;3.254;2024-03-17T02:03:22;10.90;74.10
84276;DHT22;74432;51.212;3.254;2024-03-17T02:05:48;10.90;74.80
84276;DHT22;74432;51.212;3.254;2024-03-17T02:08:14;11.00;74.80
84276;DHT22;74432;51.212;3.254;2024-03-17T02:10:40;11.20;73.60
84276;DHT22;74432;51.212;3.254;2024-03-17T02:13:05;11.00;73.20
84276;DHT22;74432;51.212;3.254;2024-03-17T02:15:32;11.00;73.10
84276;DHT22;74432;51.212;3.254;2024-03-17T02:17:58;10.80;74.10
84276;DHT22;74432;51.212;3.254;2024-03-17T02:20:24;10.90;74.70
84276;DHT22;74432;51.212;3.254;2024-03-17T02:23:12;10.90;74.30
84276;DHT22;74432;51.212;3.254;2024-03-17T02:25:38;10.90;74.50
84276;DHT22;74432;51.212;3.254;2024-03-17T02:28:05;11.10;74.30
84276;DHT22;74432;51.212;3.254;2024-03-17T02:30:30;11.00;74.20
84276;DHT22;74432;51.212;3.254;2024-03-17T02:32:57;11.10;74.10
84276;DHT22;74432;51.212;3.254;2024-03-17T02:35:24;11.10;73.90
84276;DHT22;74432;51.212;3.254;2024-03-17T02:37:49;11.10;73.90
84276;DHT22;74432;51.212;3.254;2024-03-17T02:40:15;11.20;73.20
84276;DHT22;74432;51.212;3.254;2024-03-17T02:42:42;11.00;73.30
84276;DHT22;74432;51.212;3.254;2024-03-17T02:45:11;10.90;74.30
84276;DHT22;74432;51.212;3.254;2024-03-17T02:47:40;11.20;73.70
84276;DHT22;74432;51.212;3.254;2024-03-17T02:50:07;11.00;73.40
84276;DHT22;74432;51.212;3.254;2024-03-17T02:52:33;10.90;75.00
84276;DHT22;74432;51.212;3.254;2024-03-17T02:54:59;10.90;74.00
84276;DHT22;74432;51.212;3.254;2024-03-17T02:57:25;10.80;74.90
84276;DHT22;74432;51.212;3.254;2024-03-17T02:59:58;10.70;75.30
84276;DHT22;74432;51.212;3.254;2024-03-17T03:02:23;10.50;75.30
84276;DHT22;74432;51.212;3.254;2024-03-17T03:04:50;10.50;76.30
84276;DHT22;74432;51.212;3.254;2024-03-17T03:07:16;10.60;75.90
84276;DHT22;74432;51.212;3.254;2024-03-17T03:09:41;10.50;75.90
84276;DHT22;74432;51.212;3.254;2024-03-17T03:12:07;10.30;75.90
84276;DHT22;74432;51.212;3.254;2024-03-17T03:14:33;10.20;76.40
84276;DHT22;74432;51.212;3.254;2024-03-17T03:16:59;10.30;76.20
84276;DHT22;74432;51.212;3.254;2024-03-17T03:19:26;10.30;76.70
84276;DHT22;74432;51.212;3.254;2024-03-17T03:21:52;10.20;76.90
84276;DHT22;74432;51.212;3.254;2024-03-17T03:24:18;10.20;76.80
84276;DHT22;74432;51.212;3.254;2024-03-17T03:26:44;10.10;77.30
84276;DHT22;74432;51.212;3.254;2024-03-17T03:29:10;10.20;77.00
84276;DHT22;74432;51.212;3.254;2024-03-17T03:31:36;10.30;76.70
84276;DHT22;74432;51.212;3.254;2024-03-17T03:34:04;10.40;75.60
84276;DHT22;74432;51.212;3.254;2024-03-17T03:36:33;10.30;76.20
84276;DHT22;74432;51.212;3.254;2024-03-17T03:38:59;10.20;76.70
84276;DHT22;74432;51.212;3.254;2024-03-17T03:41:24;10.20;76.40
84276;DHT22;74432;51.212;3.254;2024-03-17T03:43:50;10.20;76.80
84276;DHT22;74432;51.212;3.254;2024-03-17T03:46:16;10.40;76.50
84276;DHT22;74432;51.212;3.254;2024-03-17T03:48:42;10.40;76.40
84276;DHT22;74432;51.212;3.254;2024-03-17T03:51:09;10.40;75.70
84276;DHT22;74432;51.212;3.254;2024-03-17T03:53:35;10.40;75.80
84276;DHT22;74432;51.212;3.254;2024-03-17T03:56:03;10.30;76.10
84276;DHT22;74432;51.212;3.254;2024-03-17T03:58:33;10.30;76.40
84276;DHT22;74432;51.212;3.254;2024-03-17T04:01:03;10.50;75.90
84276;DHT22;74432;51.212;3.254;2024-03-17T04:03:29;10.40;75.70
84276;DHT22;74432;51.212;3.254;2024-03-17T04:06:04;10.40;75.20
84276;DHT22;74432;51.212;3.254;2024-03-17T04:08:32;10.50;76.00
84276;DHT22;74432;51.212;3.254;2024-03-17T04:10:57;10.50;75.70
84276;DHT22;74432;51.212;3.254;2024-03-17T04:13:23;10.50;75.00
84276;DHT22;74432;51.212;3.254;2024-03-17T04:15:49;10.50;75.20
84276;DHT22;74432;51.212;3.254;2024-03-17T04:18:15;10.50;75.80
84276;DHT22;74432;51.212;3.254;2024-03-17T04:20:43;10.50;75.00
84276;DHT22;74432;51.212;3.254;2024-03-17T04:23:08;10.40;75.10
84276;DHT22;74432;51.212;3.254;2024-03-17T04:25:34;10.40;76.10
84276;DHT22;74432;51.212;3.254;2024-03-17T04:28:00;10.30;75.80
84276;DHT22;74432;51.212;3.254;2024-03-17T04:30:25;10.10;76.50
84276;DHT22;74432;51.212;3.254;2024-03-17T04:32:51;10.10;77.10
84276;DHT22;74432;51.212;3.254;2024-03-17T04:35:17;10.10;76.50
84276;DHT22;74432;51.212;3.254;2024-03-17T04:37:43;10.20;76.40
84276;DHT22;74432;51.212;3.254;2024-03-17T04:40:09;10.10;75.80
84276;DHT22;74432;51.212;3.254;2024-03-17T04:42:35;10.00;76.40
84276;DHT22;74432;51.212;3.254;2024-03-17T04:45:01;9.90;76.90
84276;DHT22;74432;51.212;3.254;2024-03-17T04:47:27;10.00;77.40
84276;DHT22;74432;51.212;3.254;2024-03-17T04:49:52;10.10;77.00
84276;DHT22;74432;51.212;3.254;2024-03-17T04:52:18;10.30;77.00
84276;DHT22;74432;51.212;3.254;2024-03-17T04:54:44;10.40;75.50
84276;DHT22;74432;51.212;3.254;2024-03-17T04:57:09;10.50;75.20
84276;DHT22;74432;51.212;3.254;2024-03-17T04:59:35;10.60;75.00
84276;DHT22;74432;51.212;3.254;2024-03-17T05:02:01;10.70;74.70
84276;DHT22;74432;51.212;3.254;2024-03-17T05:04:28;10.60;75.00
84276;DHT22;74432;51.212;3.254;2024-03-17T05:06:53;10.50;75.00
84276;DHT22;74432;51.212;3.254;2024-03-17T05:09:19;10.50;75.60
84276;DHT22;74432;51.212;3.254;2024-03-17T05:11:46;10.60;75.50
84276;DHT22;74432;51.212;3.254;2024-03-17T05:14:12;10.80;74.70
84276;DHT22;74432;51.212;3.254;2024-03-17T05:16:38;10.80;74.90
84276;DHT22;74432;51.212;3.254;2024-03-17T05:19:04;10.90;74.20
84276;DHT22;74432;51.212;3.254;2024-03-17T05:21:30;10.70;74.30
84276;DHT22;74432;51.212;3.254;2024-03-17T05:23:57;10.70;74.80
84276;DHT22;74432;51.212;3.254;2024-03-17T05:26:25;10.70;75.60
84276;DHT22;74432;51.212;3.254;2024-03-17T05:28:51;10.70;74.60
84276;DHT22;74432;51.212;3.254;2024-03-17T05:31:17;10.60;74.40
84276;DHT22;74432;51.212;3.254;2024-03-17T05:33:46;10.80;74.70
84276;DHT22;74432;51.212;3.254;2024-03-17T05:36:11;10.50;75.80
84276;DHT22;74432;51.212;3.254;2024-03-17T05:38:37;10.60;75.50
84276;DHT22;74432;51.212;3.254;2024-03-17T05:41:07;10.60;75.80
84276;DHT22;74432;51.212;3.254;2024-03-17T05:43:37;10.70;76.40
84276;DHT22;74432;51.212;3.254;2024-03-17T05:46:07;10.60;75.40
84276;DHT22;74432;51.212;3.254;2024-03-17T05:48:34;10.50;76.00
84276;DHT22;74432;51.212;3.254;2024-03-17T05:51:03;10.50;76.00
84276;DHT22;74432;51.212;3.254;2024-03-17T05:53:29;10.70;76.00
84276;DHT22;74432;51.212;3.254;2024-03-17T05:55:58;10.60;75.50
84276;DHT22;74432;51.212;3.254;2024-03-17T05:58:24;10.50;76.50
84276;DHT22;74432;51.212;3.254;2024-03-17T06:00:50;10.60;77.40
84276;DHT22;74432;51.212;3.254;2024-03-17T06:03:15;10.40;77.40
84276;DHT22;74432;51.212;3.254;2024-03-17T06:05:43;10.60;77.20
84276;DHT22;74432;51.212;3.254;2024-03-17T06:08:10;10.70;76.00
84276;DHT22;74432;51.212;3.254;2024-03-17T06:10:37;10.80;76.50
84276;DHT22;74432;51.212;3.254;2024-03-17T06:13:03;10.80;75.50
84276;DHT22;74432;51.212;3.254;2024-03-17T06:15:30;11.00;75.40
84276;DHT22;74432;51.212;3.254;2024-03-17T06:17:55;10.90;75.10
84276;DHT22;74432;51.212;3.254;2024-03-17T06:20:25;10.90;75.50
84276;DHT22;74432;51.212;3.254;2024-03-17T06:22:54;10.80;75.40
84276;DHT22;74432;51.212;3.254;2024-03-17T06:25:20;10.60;76.30
84276;DHT22;74432;51.212;3.254;2024-03-17T06:27:52;10.70;76.50
84276;DHT22;74432;51.212;3.254;2024-03-17T06:30:18;10.60;76.60
84276;DHT22;74432;51.212;3.254;2024-03-17T06:32:45;10.70;77.00
84276;DHT22;74432;51.212;3.254;2024-03-17T06:35:14;10.80;76.70
84276;DHT22;74432;51.212;3.254;2024-03-17T06:37:44;10.80;76.40
84276;DHT22;74432;51.212;3.254;2024-03-17T06:40:14;10.80;76.10
84276;DHT22;74432;51.212;3.254;2024-03-17T06:42:40;10.60;77.20
84276;DHT22;74432;51.212;3.254;2024-03-17T06:45:06;10.70;77.00
84276;DHT22;74432;51.212;3.254;2024-03-17T06:47:34;10.80;76.70
84276;DHT22;74432;51.212;3.254;2024-03-17T06:50:05;10.90;77.20
84276;DHT22;74432;51.212;3.254;2024-03-17T06:52:31;11.00;76.60
84276;DHT22;74432;51.212;3.254;2024-03-17T06:54:57;11.00;76.50
84276;DHT22;74432;51.212;3.254;2024-03-17T06:57:24;10.90;77.10
84276;DHT22;74432;51.212;3.254;2024-03-17T06:59:50;11.10;76.30
84276;DHT22;74432;51.212;3.254;2024-03-17T07:02:16;11.10;76.60
84276;DHT22;74432;51.212;3.254;2024-03-17T07:04:47;11.20;76.60
84276;DHT22;74432;51.212;3.254;2024-03-17T07:07:13;11.10;76.10
84276;DHT22;74432;51.212;3.254;2024-03-17T07:09:40;11.00;77.90
84276;DHT22;74432;51.212;3.254;2024-03-17T07:12:07;10.90;79.20
84276;DHT22;74432;51.212;3.254;2024-03-17T07:14:32;10.80;79.60
84276;DHT22;74432;51.212;3.254;2024-03-17T07:16:58;11.00;79.90
84276;DHT22;74432;51.212;3.254;2024-03-17T07:19:24;11.10;79.20
84276;DHT22;74432;51.212;3.254;2024-03-17T07:21:49;11.10;80.10
84276;DHT22;74432;51.212;3.254;2024-03-17T07:24:16;11.10;79.20
84276;DHT22;74432;51.212;3.254;2024-03-17T07:26:41;11.30;79.10
84276;DHT22;74432;51.212;3.254;2024-03-17T07:29:07;11.40;78.50
84276;DHT22;74432;51.212;3.254;2024-03-17T07:31:34;11.30;78.80
84276;DHT22;74432;51.212;3.254;2024-03-17T07:33:59;11.20;79.40
84276;DHT22;74432;51.212;3.254;2024-03-17T07:36:25;11.40;79.10
84276;DHT22;74432;51.212;3.254;2024-03-17T07:38:51;11.60;78.40
84276;DHT22;74432;51.212;3.254;2024-03-17T07:41:17;11.70;78.10
84276;DHT22;74432;51.212;3.254;2024-03-17T07:43:45;11.50;78.10
84276;DHT22;74432;51.212;3.254;2024-03-17T07:46:11;11.60;78.60
84276;DHT22;74432;51.212;3.254;2024-03-17T07:48:38;11.60;78.20
84276;DHT22;74432;51.212;3.254;2024-03-17T07:51:12;11.60;78.90
84276;DHT22;74432;51.212;3.254;2024-03-17T07:53:39;11.70;78.60
84276;DHT22;74432;51.212;3.254;2024-03-17T07:56:09;11.70;78.60
84276;DHT22;74432;51.212;3.254;2024-03-17T07:58:36;12.10;78.10
84276;DHT22;74432;51.212;3.254;2024-03-17T08:01:07;12.20;77.50
84276;DHT22;74432;51.212;3.254;2024-03-17T08:03:36;12.30;77.50
84276;DHT22;74432;51.212;3.254;2024-03-17T08:06:04;12.30;77.20
84276;DHT22;74432;51.212;3.254;2024-03-17T08:08:30;12.00;78.40
84276;DHT22;74432;51.212;3.254;2024-03-17T08:10:56;12.10;79.10
84276;DHT22;74432;51.212;3.254;2024-03-17T08:13:22;12.10;79.30
84276;DHT22;74432;51.212;3.254;2024-03-17T08:15:59;12.00;79.70
84276;DHT22;74432;51.212;3.254;2024-03-17T08:18:25;12.00;79.90
84276;DHT22;74432;51.212;3.254;2024-03-17T08:20:52;12.00;80.60
84276;DHT22;74432;51.212;3.254;2024-03-17T08:23:19;11.80;81.50
84276;DHT22;74432;51.212;3.254;2024-03-17T08:25:55;11.90;83.10
84276;DHT22;74432;51.212;3.254;2024-03-17T08:28:24;11.80;83.10
84276;DHT22;74432;51.212;3.254;2024-03-17T08:30:59;11.90;83.60
84276;DHT22;74432;51.212;3.254;2024-03-17T08:33:26;11.90;84.50
84276;DHT22;74432;51.212;3.254;2024-03-17T08:36:04;11.90;85.50
84276;DHT22;74432;51.212;3.254;2024-03-17T08:38:31;12.10;84.10
84276;DHT22;74432;51.212;3.254;2024-03-17T08:41:08;12.10;83.50
84276;DHT22;74432;51.212;3.254;2024-03-17T08:43:35;12.10;83.50
84276;DHT22;74432;51.212;3.254;2024-03-17T08:48:31;12.30;83.20
84276;DHT22;74432;51.212;3.254;2024-03-17T08:50:58;12.30;83.20
84276;DHT22;74432;51.212;3.254;2024-03-17T08:53:24;12.20;83.90
84276;DHT22;74432;51.212;3.254;2024-03-17T08:55:50;12.40;83.60
84276;DHT22;74432;51.212;3.254;2024-03-17T08:58:16;12.30;84.10
84276;DHT22;74432;51.212;3.254;2024-03-17T09:00:42;12.40;84.30
84276;DHT22;74432;51.212;3.254;2024-03-17T09:03:09;12.30;84.40
84276;DHT22;74432;51.212;3.254;2024-03-17T09:05:36;12.40;83.90
84276;DHT22;74432;51.212;3.254;2024-03-17T09:08:02;12.20;85.50
84276;DHT22;74432;51.212;3.254;2024-03-17T09:10:28;12.20;85.70
84276;DHT22;74432;51.212;3.254;2024-03-17T09:12:54;12.10;86.70
84276;DHT22;74432;51.212;3.254;2024-03-17T09:15:20;12.20;87.60
84276;DHT22;74432;51.212;3.254;2024-03-17T09:17:46;12.20;88.30
84276;DHT22;74432;51.212;3.254;2024-03-17T09:20:12;12.20;88.50
84276;DHT22;74432;51.212;3.254;2024-03-17T09:22:42;12.10;89.40
84276;DHT22;74432;51.212;3.254;2024-03-17T09:25:08;12.10;89.60
84276;DHT22;74432;51.212;3.254;2024-03-17T09:27:35;12.20;89.90
84276;DHT22;74432;51.212;3.254;2024-03-17T09:30:04;12.30;89.90
84276;DHT22;74432;51.212;3.254;2024-03-17T09:32:37;12.40;89.60
84276;DHT22;74432;51.212;3.254;2024-03-17T09:35:04;12.70;87.70
84276;DHT22;74432;51.212;3.254;2024-03-17T09:37:31;12.60;89.00
84276;DHT22;74432;51.212;3.254;2024-03-17T09:40:00;12.60;88.90
84276;DHT22;74432;51.212;3.254;2024-03-17T09:42:26;12.70;88.00
84276;DHT22;74432;51.212;3.254;2024-03-17T09:44:55;12.60;89.50
84276;DHT22;74432;51.212;3.254;2024-03-17T09:47:22;12.70;90.00
84276;DHT22;74432;51.212;3.254;2024-03-17T09:49:50;12.70;88.60
84276;DHT22;74432;51.212;3.254;2024-03-17T09:52:23;12.50;89.40
84276;DHT22;74432;51.212;3.254;2024-03-17T09:55:00;12.50;89.40
84276;DHT22;74432;51.212;3.254;2024-03-17T09:57:27;12.60;89.90
84276;DHT22;74432;51.212;3.254;2024-03-17T09:59:55;12.60;88.70
84276;DHT22;74432;51.212;3.254;2024-03-17T10:02:21;12.60;90.50
84276;DHT22;74432;51.212;3.254;2024-03-17T10:04:47;12.60;89.00
84276;DHT22;74432;51.212;3.254;2024-03-17T10:07:13;12.50;89.90
84276;DHT22;74432;51.212;3.254;2024-03-17T10:09:41;12.80;89.60
84276;DHT22;74432;51.212;3.254;2024-03-17T10:12:28;12.80;88.30
84276;DHT22;74432;51.212;3.254;2024-03-17T10:15:01;12.70;89.00
84276;DHT22;74432;51.212;3.254;2024-03-17T10:17:31;12.70;89.00
84276;DHT22;74432;51.212;3.254;2024-03-17T10:20:20;12.90;89.10
84276;DHT22;74432;51.212;3.254;2024-03-17T10:23:07;13.00;89.50
84276;DHT22;74432;51.212;3.254;2024-03-17T10:25:38;13.20;87.40
84276;DHT22;74432;51.212;3.254;2024-03-17T10:28:10;13.40;87.00
84276;DHT22;74432;51.212;3.254;2024-03-17T10:30:36;13.60;85.70
84276;DHT22;74432;51.212;3.254;2024-03-17T10:33:02;13.70;85.70
84276;DHT22;74432;51.212;3.254;2024-03-17T10:35:36;13.70;86.10
84276;DHT22;74432;51.212;3.254;2024-03-17T10:38:07;13.80;86.00
84276;DHT22;74432;51.212;3.254;2024-03-17T10:40:34;14.10;84.30
84276;DHT22;74432;51.212;3.254;2024-03-17T10:43:03;14.10;85.20
84276;DHT22;74432;51.212;3.254;2024-03-17T10:45:29;14.20;83.80
84276;DHT22;74432;51.212;3.254;2024-03-17T10:48:01;14.00;84.50
84276;DHT22;74432;51.212;3.254;2024-03-17T10:50:30;13.80;85.50
84276;DHT22;74432;51.212;3.254;2024-03-17T10:53:01;13.80;85.80
84276;DHT22;74432;51.212;3.254;2024-03-17T10:55:32;13.90;86.20
84276;DHT22;74432;51.212;3.254;2024-03-17T10:58:00;13.90;84.70
84276;DHT22;74432;51.212;3.254;2024-03-17T11:00:29;14.20;84.60
84276;DHT22;74432;51.212;3.254;2024-03-17T11:02:55;14.10;84.40
84276;DHT22;74432;51.212;3.254;2024-03-17T11:05:22;14.20;84.00
84276;DHT22;74432;51.212;3.254;2024-03-17T11:07:50;14.30;84.10
84276;DHT22;74432;51.212;3.254;2024-03-17T11:20:38;14.60;83.00
84276;DHT22;74432;51.212;3.254;2024-03-17T11:23:05;14.70;83.80
84276;DHT22;74432;51.212;3.254;2024-03-17T11:25:37;14.80;83.60
84276;DHT22;74432;51.212;3.254;2024-03-17T11:28:04;15.10;81.80
84276;DHT22;74432;51.212;3.254;2024-03-17T11:30:48;14.90;83.60
84276;DHT22;74432;51.212;3.254;2024-03-17T11:39:07;14.60;83.70
84276;DHT22;74432;51.212;3.254;2024-03-17T11:41:47;14.50;85.40
84276;DHT22;74432;51.212;3.254;2024-03-17T11:44:24;14.80;84.90
84276;DHT22;74432;51.212;3.254;2024-03-17T11:49:31;15.20;81.10
84276;DHT22;74432;51.212;3.254;2024-03-17T11:51:58;15.20;81.60
84276;DHT22;74432;51.212;3.254;2024-03-17T11:54:33;15.20;82.20
84276;DHT22;74432;51.212;3.254;2024-03-17T11:57:04;15.20;82.70
84276;DHT22;74432;51.212;3.254;2024-03-17T11:59:31;15.40;81.70
84276;DHT22;74432;51.212;3.254;2024-03-17T12:01:58;15.50;83.60
84276;DHT22;74432;51.212;3.254;2024-03-17T12:04:24;15.70;81.50
84276;DHT22;74432;51.212;3.254;2024-03-17T12:06:51;15.70;80.10
84276;DHT22;74432;51.212;3.254;2024-03-17T12:09:30;15.50;81.10
84276;DHT22;74432;51.212;3.254;2024-03-17T12:12:12;15.70;81.50
84276;DHT22;74432;51.212;3.254;2024-03-17T12:14:39;15.80;79.40
84276;DHT22;74432;51.212;3.254;2024-03-17T12:17:10;15.90;79.50
84276;DHT22;74432;51.212;3.254;2024-03-17T12:19:37;15.90;78.40
84276;DHT22;74432;51.212;3.254;2024-03-17T12:22:04;16.00;78.90
84276;DHT22;74432;51.212;3.254;2024-03-17T12:24:33;16.00;79.20
84276;DHT22;74432;51.212;3.254;2024-03-17T12:26:59;15.80;78.90
84276;DHT22;74432;51.212;3.254;2024-03-17T12:31:54;15.90;78.80
84276;DHT22;74432;51.212;3.254;2024-03-17T12:34:21;15.80;79.10
84276;DHT22;74432;51.212;3.254;2024-03-17T12:36:48;16.00;79.00
84276;DHT22;74432;51.212;3.254;2024-03-17T12:41:45;15.90;77.10
84276;DHT22;74432;51.212;3.254;2024-03-17T12:44:24;15.80;78.70
84276;DHT22;74432;51.212;3.254;2024-03-17T12:46:55;15.80;78.50
84276;DHT22;74432;51.212;3.254;2024-03-17T12:49:22;15.60;78.70
84276;DHT22;74432;51.212;3.254;2024-03-17T12:51:50;15.50;79.30
84276;DHT22;74432;51.212;3.254;2024-03-17T12:54:19;15.60;79.50
84276;DHT22;74432;51.212;3.254;2024-03-17T12:56:45;15.60;80.20
84276;DHT22;74432;51.212;3.254;2024-03-17T12:59:40;15.70;80.00
84276;DHT22;74432;51.212;3.254;2024-03-17T13:02:24;15.60;80.30
84276;DHT22;74432;51.212;3.254;2024-03-17T13:05:13;15.40;81.00
84276;DHT22;74432;51.212;3.254;2024-03-17T13:07:40;15.30;81.20
84276;DHT22;74432;51.212;3.254;2024-03-17T13:10:05;15.20;81.90
84276;DHT22;74432;51.212;3.254;2024-03-17T13:12:36;15.10;82.40
84276;DHT22;74432;51.212;3.254;2024-03-17T13:15:02;15.20;81.40
84276;DHT22;74432;51.212;3.254;2024-03-17T13:17:28;15.20;81.60
84276;DHT22;74432;51.212;3.254;2024-03-17T13:20:00;15.20;82.10
84276;DHT22;74432;51.212;3.254;2024-03-17T13:22:26;15.20;82.10
84276;DHT22;74432;51.212;3.254;2024-03-17T13:24:52;15.30;81.20
84276;DHT22;74432;51.212;3.254;2024-03-17T13:27:17;15.10;81.00
84276;DHT22;74432;51.212;3.254;2024-03-17T13:29:47;15.10;81.40
84276;DHT22;74432;51.212;3.254;2024-03-17T13:32:13;14.90;83.10
84276;DHT22;74432;51.212;3.254;2024-03-17T13:34:39;15.00;82.90
84276;DHT22;74432;51.212;3.254;2024-03-17T13:37:05;15.10;82.20
84276;DHT22;74432;51.212;3.254;2024-03-17T13:39:31;15.20;83.40
84276;DHT22;74432;51.212;3.254;2024-03-17T13:41:57;15.40;83.10
84276;DHT22;74432;51.212;3.254;2024-03-17T13:44:32;15.50;81.80
84276;DHT22;74432;51.212;3.254;2024-03-17T13:46:58;15.60;82.20
84276;DHT22;74432;51.212;3.254;2024-03-17T13:49:25;15.50;81.80
84276;DHT22;74432;51.212;3.254;2024-03-17T13:51:53;15.30;82.20
84276;DHT22;74432;51.212;3.254;2024-03-17T13:54:18;15.30;83.70
84276;DHT22;74432;51.212;3.254;2024-03-17T13:56:48;15.20;84.00
84276;DHT22;74432;51.212;3.254;2024-03-17T13:59:17;15.30;84.70
84276;DHT22;74432;51.212;3.254;2024-03-17T14:01:43;15.30;84.50
84276;DHT22;74432;51.212;3.254;2024-03-17T14:04:13;15.30;84.10
84276;DHT22;74432;51.212;3.254;2024-03-17T14:06:41;15.40;84.30
84276;DHT22;74432;51.212;3.254;2024-03-17T14:09:07;15.40;84.40
84276;DHT22;74432;51.212;3.254;2024-03-17T14:11:35;15.60;84.20
84276;DHT22;74432;51.212;3.254;2024-03-17T14:14:00;15.60;82.30
84276;DHT22;74432;51.212;3.254;2024-03-17T14:16:26;15.60;82.20
84276;DHT22;74432;51.212;3.254;2024-03-17T14:18:51;15.50;81.50
84276;DHT22;74432;51.212;3.254;2024-03-17T14:21:17;15.40;82.10
84276;DHT22;74432;51.212;3.254;2024-03-17T14:23:43;15.30;83.20
84276;DHT22;74432;51.212;3.254;2024-03-17T14:26:10;15.20;83.60
84276;DHT22;74432;51.212;3.254;2024-03-17T14:28:36;15.20;83.70
84276;DHT22;74432;51.212;3.254;2024-03-17T14:31:02;15.30;84.30
84276;DHT22;74432;51.212;3.254;2024-03-17T14:33:28;15.50;83.10
84276;DHT22;74432;51.212;3.254;2024-03-17T14:35:56;15.20;82.10
84276;DHT22;74432;51.212;3.254;2024-03-17T14:38:22;15.10;83.50
84276;DHT22;74432;51.212;3.254;2024-03-17T14:40:51;15.00;84.20
84276;DHT22;74432;51.212;3.254;2024-03-17T14:43:17;14.90;84.00
84276;DHT22;74432;51.212;3.254;2024-03-17T14:45:42;14.90;84.80
84276;DHT22;74432;51.212;3.254;2024-03-17T14:48:08;14.60;85.70
84276;DHT22;74432;51.212;3.254;2024-03-17T14:50:40;14.50;87.20
84276;DHT22;74432;51.212;3.254;2024-03-17T14:53:06;14.50;87.80
84276;DHT22;74432;51.212;3.254;2024-03-17T14:55:32;14.60;88.10
84276;DHT22;74432;51.212;3.254;2024-03-17T14:58:00;14.60;88.70
84276;DHT22;74432;51.212;3.254;2024-03-17T15:00:29;14.60;89.00
84276;DHT22;74432;51.212;3.254;2024-03-17T15:02:57;14.60;89.30
84276;DHT22;74432;51.212;3.254;2024-03-17T15:05:22;14.50;89.70
84276;DHT22;74432;51.212;3.254;2024-03-17T15:07:50;14.40;90.20
84276;DHT22;74432;51.212;3.254;2024-03-17T15:10:16;14.20;90.40
84276;DHT22;74432;51.212;3.254;2024-03-17T15:12:49;14.10;91.20
84276;DHT22;74432;51.212;3.254;2024-03-17T15:15:15;14.00;91.50
84276;DHT22;74432;51.212;3.254;2024-03-17T15:17:41;13.90;91.70
84276;DHT22;74432;51.212;3.254;2024-03-17T15:20:10;13.90;92.40
84276;DHT22;74432;51.212;3.254;2024-03-17T15:22:45;13.90;92.20
84276;DHT22;74432;51.212;3.254;2024-03-17T15:25:11;14.00;92.20
84276;DHT22;74432;51.212;3.254;2024-03-17T15:27:37;13.90;92.50
84276;DHT22;74432;51.212;3.254;2024-03-17T15:30:04;13.90;92.40
84276;DHT22;74432;51.212;3.254;2024-03-17T15:32:29;13.90;92.30
84276;DHT22;74432;51.212;3.254;2024-03-17T15:34:56;13.90;92.30
84276;DHT22;74432;51.212;3.254;2024-03-17T15:37:24;13.90;92.40
84276;DHT22;74432;51.212;3.254;2024-03-17T15:39:50;14.00;92.60
84276;DHT22;74432;51.212;3.254;2024-03-17T15:42:15;13.80;93.00
84276;DHT22;74432;51.212;3.254;2024-03-17T15:44:42;13.80;93.00
84276;DHT22;74432;51.212;3.254;2024-03-17T15:47:08;13.90;92.90
84276;DHT22;74432;51.212;3.254;2024-03-17T15:49:34;13.90;92.80
84276;DHT22;74432;51.212;3.254;2024-03-17T15:51:59;13.90;92.80
84276;DHT22;74432;51.212;3.254;2024-03-17T15:54:25;13.90;92.90
84276;DHT22;74432;51.212;3.254;2024-03-17T15:56:50;13.90;92.60
84276;DHT22;74432;51.212;3.254;2024-03-17T15:59:16;13.70;93.20